createdAt,value
2018-08-22T00:02:14.180Z,2.80
2018-08-22T00:04:41.997Z,2.87
2018-08-22T00:07:09.809Z,2.57
2018-08-22T00:09:37.624Z,3.40
2018-08-22T00:12:05.468Z,2.87
2018-08-22T00:14:33.276Z,2.77
2018-08-22T00:17:01.193Z,3.90
2018-08-22T00:19:29.029Z,3.13
2018-08-22T00:21:56.849Z,3.20
2018-08-22T00:24:24.652Z,2.87
2018-08-22T00:26:52.481Z,2.77
2018-08-22T00:29:20.420Z,3.30
2018-08-22T00:31:48.092Z,2.50
2018-08-22T00:34:15.901Z,2.60
2018-08-22T00:36:43.705Z,3.03
2018-08-22T00:39:11.521Z,3.07
2018-08-22T00:41:39.324Z,3.10
2018-08-22T00:44:07.137Z,2.90
2018-08-22T00:46:41.657Z,3.03
2018-08-22T00:49:09.472Z,3.07
2018-08-22T00:51:37.276Z,3.00
2018-08-22T00:54:05.095Z,2.90
2018-08-22T00:56:32.902Z,3.37
2018-08-22T00:59:00.713Z,3.10
2018-08-22T01:01:28.577Z,3.20
2018-08-22T01:03:56.393Z,3.47
2018-08-22T01:06:24.196Z,2.83
2018-08-22T01:08:52.004Z,3.00
2018-08-22T01:11:19.813Z,3.03
2018-08-22T01:13:47.629Z,3.03
2018-08-22T01:16:15.436Z,3.10
2018-08-22T01:18:43.260Z,3.10
2018-08-22T01:21:11.069Z,3.23
2018-08-22T01:23:38.877Z,2.87
2018-08-22T01:26:06.685Z,3.50
2018-08-22T01:28:34.500Z,3.37
2018-08-22T01:31:02.308Z,2.90
2018-08-22T01:33:30.159Z,3.50
2018-08-22T01:35:58.022Z,76.30
2018-08-22T01:38:25.853Z,233.70
2018-08-22T01:40:53.715Z,91.67
2018-08-22T01:43:21.550Z,101.33
2018-08-22T01:45:49.368Z,92.60
2018-08-22T01:48:17.176Z,80.87
2018-08-22T01:50:45.028Z,136.10
2018-08-22T01:53:12.861Z,122.97
2018-08-22T01:55:40.685Z,105.07
2018-08-22T01:58:08.509Z,106.93
2018-08-22T02:00:36.332Z,88.40
2018-08-22T02:03:04.166Z,77.87
2018-08-22T02:05:32.017Z,76.17
2018-08-22T02:07:59.850Z,81.90
2018-08-22T02:10:27.669Z,93.70
2018-08-22T02:12:55.494Z,75.63
2018-08-22T02:15:23.301Z,88.93
2018-08-22T02:17:51.141Z,94.17
2018-08-22T02:20:18.960Z,106.90
2018-08-22T02:22:46.781Z,81.63
2018-08-22T02:25:14.676Z,81.80
2018-08-22T02:27:42.446Z,100.73
2018-08-22T02:30:10.282Z,100.73
2018-08-22T02:32:38.097Z,76.17
2018-08-22T02:35:05.925Z,94.27
2018-08-22T02:37:33.754Z,95.13
2018-08-22T02:40:01.611Z,87.37
2018-08-22T02:42:29.447Z,118.23
2018-08-22T02:44:57.272Z,102.37
2018-08-22T02:47:25.355Z,84.23
2018-08-22T02:49:53.186Z,84.43
2018-08-22T02:52:21.022Z,64.37
2018-08-22T02:54:48.858Z,96.43
2018-08-22T02:57:16.681Z,91.50
2018-08-22T02:59:44.513Z,90.27
2018-08-22T03:02:12.346Z,72.37
2018-08-22T03:04:40.190Z,98.30
2018-08-22T03:07:08.018Z,77.17
2018-08-22T03:09:35.854Z,90.53
2018-08-22T03:12:03.679Z,93.17
2018-08-22T03:14:31.504Z,107.50
2018-08-22T03:16:59.327Z,160.93
2018-08-22T03:19:27.179Z,133.70
2018-08-22T03:21:55.022Z,149.53
2018-08-22T03:24:22.867Z,112.17
2018-08-22T03:26:50.692Z,90.80
2018-08-22T03:29:18.524Z,90.90
2018-08-22T03:31:46.346Z,101.87
2018-08-22T03:34:14.174Z,81.07
2018-08-22T03:36:42.002Z,81.53
2018-08-22T03:39:09.905Z,93.97
2018-08-22T03:41:37.750Z,96.57
2018-08-22T03:44:05.573Z,96.37
2018-08-22T03:46:34.215Z,190.10
2018-08-22T03:49:02.045Z,185.87
2018-08-22T03:51:29.922Z,167.87
2018-08-22T03:53:57.760Z,190.93
2018-08-22T03:56:25.595Z,188.93
2018-08-22T03:58:53.447Z,116.87
2018-08-22T04:01:21.264Z,94.07
2018-08-22T04:03:49.085Z,88.00
2018-08-22T04:06:16.921Z,81.03
2018-08-22T04:08:44.816Z,83.53
2018-08-22T04:11:12.727Z,75.83
2018-08-22T04:13:40.546Z,115.53
2018-08-22T04:16:08.395Z,120.17
2018-08-22T04:18:36.221Z,90.27
2018-08-22T04:21:04.057Z,84.60
2018-08-22T04:23:31.900Z,87.50
2018-08-22T04:25:59.746Z,78.10
2018-08-22T04:28:27.564Z,85.37
2018-08-22T04:30:55.449Z,103.50
2018-08-22T04:33:23.234Z,109.07
2018-08-22T04:35:51.077Z,133.83
2018-08-22T04:38:18.923Z,143.83
2018-08-22T04:40:46.766Z,135.47
2018-08-22T04:43:14.604Z,239.03
2018-08-22T04:45:42.441Z,313.93
2018-08-22T04:48:10.323Z,220.53
2018-08-22T04:50:38.126Z,264.47
2018-08-22T04:53:05.955Z,270.63
2018-08-22T04:55:33.798Z,287.40
2018-08-22T04:58:01.635Z,281.03
2018-08-22T05:00:29.467Z,140.20
2018-08-22T05:02:57.294Z,211.70
2018-08-22T05:05:25.128Z,70.13
2018-08-22T05:07:52.953Z,101.60
2018-08-22T05:10:20.794Z,121.97
2018-08-22T05:12:48.630Z,182.07
2018-08-22T05:15:16.452Z,228.20
2018-08-22T05:17:44.295Z,254.50
2018-08-22T05:20:12.130Z,255.20
2018-08-22T05:22:39.971Z,309.23
2018-08-22T05:25:07.815Z,299.43
2018-08-22T05:27:35.674Z,302.17
2018-08-22T05:30:03.547Z,355.80
2018-08-22T05:32:31.375Z,323.13
2018-08-22T05:34:59.205Z,331.07
2018-08-22T05:37:27.040Z,355.17
2018-08-22T05:39:54.905Z,363.97
2018-08-22T05:42:22.725Z,344.47
2018-08-22T05:44:50.632Z,359.13
2018-08-22T05:47:18.468Z,230.83
2018-08-22T05:49:46.284Z,272.73
2018-08-22T05:52:14.111Z,384.67
2018-08-22T05:54:41.942Z,351.40
2018-08-22T05:57:09.775Z,317.37
2018-08-22T05:59:37.602Z,332.83
2018-08-22T06:02:05.442Z,318.93
2018-08-22T06:04:33.276Z,307.20
2018-08-22T06:07:01.101Z,304.37
2018-08-22T06:09:28.929Z,319.43
2018-08-22T06:11:56.771Z,341.77
2018-08-22T06:14:24.592Z,312.03
2018-08-22T06:16:52.437Z,330.70
2018-08-22T06:19:20.279Z,305.07
2018-08-22T06:21:48.109Z,333.80
2018-08-22T06:24:15.942Z,325.03
2018-08-22T06:26:43.779Z,290.93
2018-08-22T06:29:11.613Z,287.87
2018-08-22T06:34:13.859Z,299.03
2018-08-22T06:36:41.685Z,346.90
2018-08-22T06:39:10.614Z,356.30
2018-08-22T06:41:38.753Z,379.27
2018-08-22T06:44:06.840Z,417.20
2018-08-22T06:46:34.664Z,416.97
2018-08-22T06:49:02.502Z,427.20
2018-08-22T06:51:30.355Z,416.67
2018-08-22T06:53:58.987Z,454.70
2018-08-22T06:56:26.842Z,420.07
2018-08-22T06:58:54.683Z,461.97
2018-08-22T07:01:22.542Z,461.73
2018-08-22T07:03:50.374Z,394.77
2018-08-22T07:06:18.223Z,292.73
2018-08-22T07:08:46.053Z,412.93
2018-08-22T07:11:13.885Z,284.63
2018-08-22T07:13:41.748Z,238.17
2018-08-22T07:16:09.594Z,211.77
2018-08-22T07:18:37.439Z,290.83
2018-08-22T07:21:05.322Z,222.77
2018-08-22T07:23:33.127Z,264.87
2018-08-22T07:26:00.970Z,248.70
2018-08-22T07:28:28.803Z,179.17
2018-08-22T07:30:56.639Z,182.23
2018-08-22T07:33:24.473Z,188.00
2018-08-22T07:35:52.332Z,199.23
2018-08-22T07:38:20.142Z,161.00
2018-08-22T07:40:47.978Z,172.17
2018-08-22T07:43:15.807Z,185.97
2018-08-22T07:45:43.653Z,219.90
2018-08-22T07:48:11.555Z,301.43
2018-08-22T07:50:39.384Z,298.10
2018-08-22T07:53:07.213Z,317.20
2018-08-22T07:55:36.682Z,339.13
2018-08-22T07:58:04.709Z,327.43
2018-08-22T08:00:32.614Z,333.93
2018-08-22T08:03:00.713Z,315.27
2018-08-22T08:05:28.716Z,316.93
2018-08-22T08:07:56.838Z,332.73
2018-08-22T08:10:30.686Z,354.90
2018-08-22T08:12:58.653Z,222.13
2018-08-22T08:15:26.511Z,230.00
2018-08-22T08:17:54.382Z,270.17
2018-08-22T08:20:22.511Z,299.67
2018-08-22T08:22:50.364Z,292.33
2018-08-22T08:25:18.680Z,248.33
2018-08-22T08:27:46.704Z,171.53
2018-08-22T08:30:14.748Z,187.50
2018-08-22T08:32:42.867Z,244.10
2018-08-22T08:35:10.891Z,230.07
2018-08-22T08:37:38.906Z,179.17
2018-08-22T08:40:06.913Z,285.20
2018-08-22T08:42:34.932Z,213.37
2018-08-22T08:45:03.043Z,236.83
2018-08-22T08:47:31.063Z,242.23
2018-08-22T08:49:59.073Z,275.53
2018-08-22T08:52:27.098Z,283.80
2018-08-22T08:54:55.116Z,261.90
2018-08-22T08:57:23.168Z,262.80
2018-08-22T08:59:51.146Z,250.10
2018-08-22T09:02:19.162Z,265.17
2018-08-22T09:04:47.183Z,290.43
2018-08-22T09:07:15.219Z,263.97
2018-08-22T09:09:43.235Z,255.43
2018-08-22T09:12:11.273Z,229.77
2018-08-22T09:14:39.270Z,293.73
2018-08-22T09:17:13.839Z,200.90
2018-08-22T09:19:41.812Z,285.87
2018-08-22T09:22:09.899Z,252.60
2018-08-22T09:24:37.914Z,271.67
2018-08-22T09:27:05.957Z,236.50
2018-08-22T09:29:34.043Z,265.17
2018-08-22T09:32:02.011Z,242.03
2018-08-22T09:34:30.049Z,290.87
2018-08-22T09:36:58.081Z,293.30
2018-08-22T09:39:26.207Z,295.73
2018-08-22T09:41:54.134Z,277.27
2018-08-22T09:44:22.157Z,287.17
2018-08-22T09:46:50.201Z,291.07
2018-08-22T09:49:18.191Z,280.20
2018-08-22T09:51:46.196Z,284.63
2018-08-22T09:54:14.210Z,251.03
2018-08-22T09:56:42.224Z,262.57
2018-08-22T09:59:10.235Z,287.97
2018-08-22T10:01:44.175Z,244.17
2018-08-22T10:04:12.196Z,274.43
2018-08-22T10:06:41.560Z,270.93
2018-08-22T10:09:10.586Z,225.77
2018-08-22T10:11:38.617Z,280.10
2018-08-22T10:14:06.634Z,287.90
2018-08-22T10:16:34.635Z,277.83
2018-08-22T10:19:02.699Z,251.47
2018-08-22T10:21:30.678Z,287.60
2018-08-22T10:23:58.689Z,243.03
2018-08-22T10:26:26.709Z,219.43
2018-08-22T10:28:54.841Z,232.83
2018-08-22T10:31:23.590Z,221.07
2018-08-22T10:33:51.628Z,263.43
2018-08-22T10:36:19.704Z,254.60
2018-08-22T10:38:47.719Z,218.77
2018-08-22T10:41:15.723Z,251.43
2018-08-22T10:43:43.730Z,213.57
2018-08-22T10:46:11.741Z,256.33
2018-08-22T10:48:39.750Z,244.20
2018-08-22T10:51:08.360Z,246.80
2018-08-22T10:53:36.469Z,219.23
2018-08-22T10:56:04.481Z,189.57
2018-08-22T10:58:32.571Z,215.37
2018-08-22T11:01:01.055Z,225.33
2018-08-22T11:03:29.450Z,268.80
2018-08-22T11:05:57.459Z,270.40
2018-08-22T11:08:25.482Z,249.03
2018-08-22T11:10:53.499Z,259.00
2018-08-22T11:13:21.527Z,258.67
2018-08-22T11:15:49.670Z,228.27
2018-08-22T11:18:17.612Z,237.37
2018-08-22T11:20:46.851Z,269.50
2018-08-22T11:23:27.876Z,264.33
2018-08-22T11:26:07.521Z,256.10
2018-08-22T11:28:47.272Z,244.37
2018-08-22T11:31:27.466Z,218.00
2018-08-22T11:34:07.114Z,261.93
2018-08-22T11:36:34.830Z,261.20
2018-08-22T11:39:04.394Z,270.83
2018-08-22T11:41:32.398Z,265.70
2018-08-22T11:44:00.415Z,255.17
2018-08-22T11:46:28.422Z,251.37
2018-08-22T11:48:56.448Z,260.50
2018-08-22T11:51:24.470Z,257.83
2018-08-22T11:53:52.480Z,274.03
2018-08-22T11:56:20.491Z,269.90
2018-08-22T11:58:48.503Z,269.80
2018-08-22T12:01:16.521Z,267.43
2018-08-22T12:03:44.575Z,288.90
2018-08-22T12:06:12.595Z,276.27
2018-08-22T12:08:40.601Z,255.37
2018-08-22T12:11:08.622Z,237.13
2018-08-22T12:13:36.634Z,277.43
2018-08-22T12:16:04.756Z,225.17
2018-08-22T12:18:32.746Z,259.17
2018-08-22T12:21:00.760Z,294.13
2018-08-22T12:23:28.790Z,284.37
2018-08-22T12:25:56.796Z,262.63
2018-08-22T12:28:24.820Z,279.83
2018-08-22T12:30:52.897Z,289.43
2018-08-22T12:33:20.893Z,279.43
2018-08-22T12:35:48.914Z,265.27
2018-08-22T12:38:16.935Z,277.57
2018-08-22T12:40:44.946Z,286.40
2018-08-22T12:43:12.955Z,258.80
2018-08-22T12:45:40.970Z,275.47
2018-08-22T12:48:08.981Z,267.07
2018-08-22T12:50:37.003Z,203.83
2018-08-22T12:53:05.414Z,212.60
2018-08-22T12:55:33.455Z,281.80
2018-08-22T12:58:01.458Z,232.20
2018-08-22T13:00:29.474Z,242.90
2018-08-22T13:02:57.491Z,256.93
2018-08-22T13:05:25.512Z,284.20
2018-08-22T13:07:53.515Z,236.23
2018-08-22T13:10:21.535Z,226.80
2018-08-22T13:12:49.540Z,265.33
2018-08-22T13:15:17.574Z,241.37
2018-08-22T13:17:45.588Z,307.87
2018-08-22T13:20:13.620Z,249.00
2018-08-22T13:22:41.631Z,233.47
2018-08-22T13:25:09.644Z,263.97
2018-08-22T13:27:37.666Z,273.83
2018-08-22T13:30:06.086Z,269.67
2018-08-22T13:32:34.092Z,279.63
2018-08-22T13:35:02.095Z,292.87
2018-08-22T13:37:30.108Z,236.43
2018-08-22T13:39:58.119Z,346.63
2018-08-22T13:42:26.744Z,287.10
2018-08-22T13:44:54.747Z,256.20
2018-08-22T13:47:22.758Z,343.30
2018-08-22T13:49:50.760Z,320.50
2018-08-22T13:52:18.771Z,322.60
2018-08-22T13:54:46.770Z,308.23
2018-08-22T13:57:14.784Z,297.80
2018-08-22T13:59:42.791Z,320.57
2018-08-22T14:02:10.804Z,278.17
2018-08-22T14:04:38.802Z,260.67
2018-08-22T14:07:06.824Z,290.47
2018-08-22T14:09:34.859Z,288.30
2018-08-22T14:12:02.862Z,312.90
2018-08-22T14:14:30.882Z,322.30
2018-08-22T14:16:58.892Z,297.37
2018-08-22T14:19:26.898Z,331.53
2018-08-22T14:21:54.912Z,342.63
2018-08-22T14:24:22.915Z,323.97
2018-08-22T14:26:50.932Z,324.70
2018-08-22T14:29:18.926Z,336.97
2018-08-22T14:31:46.934Z,336.97
2018-08-22T14:34:14.947Z,321.90
2018-08-22T14:36:42.958Z,329.93
2018-08-22T14:39:12.180Z,293.37
2018-08-22T14:41:40.254Z,300.93
2018-08-22T14:44:08.343Z,321.57
2018-08-22T14:46:36.346Z,328.00
2018-08-22T14:49:10.678Z,300.77
2018-08-22T14:51:38.699Z,303.27
2018-08-22T14:54:06.747Z,246.13
2018-08-22T14:56:34.809Z,327.73
2018-08-22T14:59:02.775Z,279.60
2018-08-22T15:01:30.777Z,276.30
2018-08-22T15:03:58.795Z,311.67
2018-08-22T15:06:26.799Z,306.07
2018-08-22T15:09:01.927Z,268.27
2018-08-22T15:11:29.972Z,265.03
2018-08-22T15:13:57.976Z,268.67
2018-08-22T15:16:26.048Z,180.87
2018-08-22T15:18:54.358Z,187.70
2018-08-22T15:21:22.386Z,260.33
2018-08-22T15:23:50.583Z,297.77
2018-08-22T15:26:18.586Z,264.80
2018-08-22T15:28:46.591Z,250.20
2018-08-22T15:31:14.604Z,191.80
2018-08-22T15:33:43.172Z,185.70
2018-08-22T15:36:11.187Z,185.53
2018-08-22T15:38:39.203Z,168.90
2018-08-22T15:41:07.294Z,204.40
2018-08-22T15:43:35.459Z,194.83
2018-08-22T15:46:03.458Z,191.80
2018-08-22T15:48:31.563Z,848.90
2018-08-22T15:50:59.945Z,863.33
2018-08-22T15:53:27.967Z,845.60
2018-08-22T15:55:55.975Z,818.97
2018-08-22T15:58:23.988Z,865.63
2018-08-22T16:00:53.147Z,882.67
2018-08-22T16:03:21.811Z,911.73
2018-08-22T16:05:50.561Z,868.00
2018-08-22T16:08:20.115Z,821.47
2018-08-22T16:10:48.111Z,877.63
2018-08-22T16:13:21.639Z,844.47
2018-08-22T16:15:50.849Z,857.57
2018-08-22T16:18:18.901Z,825.97
2018-08-22T16:20:54.383Z,896.03
2018-08-22T16:23:24.744Z,871.87
2018-08-22T16:25:53.480Z,860.67
2018-08-22T16:28:21.963Z,874.73
2018-08-22T16:30:57.042Z,897.43
2018-08-22T16:33:20.779Z,896.20
2018-08-22T16:35:48.800Z,899.10
2018-08-22T16:38:16.816Z,864.83
2018-08-22T16:40:51.020Z,896.93
2018-08-22T16:43:35.939Z,875.43
2018-08-22T16:46:06.039Z,821.77
2018-08-22T16:48:34.046Z,803.13
2018-08-22T16:51:02.059Z,806.17
2018-08-22T16:53:30.087Z,747.33
2018-08-22T16:55:58.156Z,754.93
2018-08-22T16:58:26.279Z,781.60
2018-08-22T17:00:55.293Z,741.87
2018-08-22T17:03:23.307Z,740.20
2018-08-22T17:05:55.067Z,705.20
2018-08-22T17:08:23.083Z,676.30
2018-08-22T17:10:55.467Z,647.77
2018-08-22T17:13:29.412Z,939.57
2018-08-22T17:15:58.618Z,794.17
2018-08-22T17:18:26.918Z,696.00
2018-08-22T17:20:54.928Z,643.63
2018-08-22T17:23:23.030Z,602.00
2018-08-22T17:25:50.947Z,563.17
2018-08-22T17:28:23.682Z,575.07
2018-08-22T17:30:51.754Z,533.20
2018-08-22T17:33:19.770Z,533.23
2018-08-22T17:35:47.787Z,540.20
2018-08-22T17:38:15.802Z,549.03
2018-08-22T17:40:43.814Z,541.93
2018-08-22T17:43:11.816Z,520.90
2018-08-22T17:45:40.655Z,520.73
2018-08-22T17:48:08.659Z,537.33
2018-08-22T17:50:36.676Z,648.70
2018-08-22T17:53:06.005Z,597.53
2018-08-22T17:55:34.028Z,642.63
2018-08-22T17:58:02.029Z,583.07
2018-08-22T18:00:32.856Z,534.33
2018-08-22T18:03:00.867Z,582.37
2018-08-22T18:05:31.871Z,605.73
2018-08-22T18:08:01.759Z,733.77
2018-08-22T18:10:33.932Z,841.60
2018-08-22T18:13:07.326Z,885.83
2018-08-22T18:15:35.348Z,888.70
2018-08-22T18:18:03.418Z,923.53
2018-08-22T18:20:32.340Z,909.67
2018-08-22T18:23:00.348Z,901.33
2018-08-22T18:25:28.363Z,913.40
2018-08-22T18:28:00.720Z,995.63
2018-08-22T18:30:28.723Z,939.27
2018-08-22T18:32:56.735Z,919.67
2018-08-22T18:35:24.775Z,914.23
2018-08-22T18:37:52.783Z,920.00
2018-08-22T18:40:23.212Z,952.67
2018-08-22T18:42:53.595Z,920.10
2018-08-22T18:45:22.147Z,853.83
2018-08-22T18:47:50.344Z,937.73
2018-08-22T18:50:18.643Z,882.90
2018-08-22T18:52:50.847Z,847.73
2018-08-22T18:55:20.914Z,838.10
2018-08-22T18:57:48.966Z,818.27
2018-08-22T19:00:16.989Z,607.30
2018-08-22T19:02:45.006Z,559.90
2018-08-22T19:05:19.763Z,527.43
2018-08-22T19:08:08.626Z,514.37
2018-08-22T19:10:37.738Z,538.00
2018-08-22T19:13:11.129Z,535.77
2018-08-22T19:15:39.154Z,597.37
2018-08-22T19:18:08.583Z,617.50
2018-08-22T19:20:36.647Z,643.03
2018-08-22T19:23:04.754Z,631.83
2018-08-22T19:25:33.062Z,642.50
2018-08-22T19:28:01.497Z,663.43
2018-08-22T19:30:29.633Z,683.53
2018-08-22T19:32:57.631Z,661.03
2018-08-22T19:35:25.695Z,659.93
2018-08-22T19:37:59.103Z,650.07
2018-08-22T19:40:27.120Z,609.93
2018-08-22T19:42:55.127Z,662.73
2018-08-22T19:45:23.135Z,566.23
2018-08-22T19:47:51.134Z,592.03
2018-08-22T19:50:19.165Z,642.73
2018-08-22T19:52:47.207Z,593.80
2018-08-22T19:55:15.214Z,664.97
2018-08-22T19:57:44.678Z,651.73
2018-08-22T20:00:13.709Z,617.53
2018-08-22T20:02:41.664Z,734.53
2018-08-22T20:05:11.876Z,805.40
2018-08-22T20:07:40.297Z,780.37
2018-08-22T20:10:09.063Z,794.87
2018-08-22T20:12:48.763Z,806.10
2018-08-22T20:15:16.826Z,825.80
2018-08-22T20:17:46.478Z,843.10
2018-08-22T20:20:14.662Z,830.17
2018-08-22T20:22:43.974Z,841.47
2018-08-22T20:25:12.321Z,843.67
2018-08-22T20:27:40.423Z,883.20
2018-08-22T20:30:12.630Z,834.60
2018-08-22T20:32:47.206Z,890.73
2018-08-22T20:35:19.476Z,900.43
2018-08-22T20:37:47.477Z,904.00
2018-08-22T20:40:15.491Z,946.80
2018-08-22T20:42:43.567Z,920.20
2018-08-22T20:45:14.143Z,926.50
2018-08-22T20:47:42.195Z,919.83
2018-08-22T20:50:10.243Z,967.97
2018-08-22T20:52:38.401Z,948.50
2018-08-22T20:55:08.688Z,986.43
2018-08-22T20:57:36.699Z,964.77
2018-08-22T21:00:05.521Z,992.80
2018-08-22T21:02:33.582Z,958.83
2018-08-22T21:05:01.544Z,936.43
2018-08-22T21:07:34.883Z,915.23
2018-08-22T21:10:02.887Z,914.63
2018-08-22T21:12:30.898Z,907.30
2018-08-22T21:14:59.016Z,965.90
2018-08-22T21:17:27.036Z,978.87
2018-08-22T21:19:55.048Z,965.33
2018-08-22T21:22:26.805Z,981.70
2018-08-22T21:24:56.451Z,991.23
2018-08-22T21:27:24.443Z,980.43
2018-08-22T21:29:52.571Z,970.50
2018-08-22T21:32:20.757Z,899.53
2018-08-22T21:34:48.995Z,865.23
2018-08-22T21:37:24.894Z,886.23
2018-08-22T21:39:52.899Z,884.80
2018-08-22T21:42:25.224Z,792.10
2018-08-22T21:44:53.230Z,762.23
2018-08-22T21:47:21.262Z,739.77
2018-08-22T21:49:49.321Z,801.33
2018-08-22T21:52:17.364Z,825.73
2018-08-22T21:54:45.418Z,836.97
2018-08-22T21:57:13.373Z,963.20
2018-08-22T21:59:41.388Z,994.37
2018-08-22T22:02:10.419Z,947.67
2018-08-22T22:04:39.539Z,985.37
2018-08-22T22:07:08.603Z,977.27
2018-08-22T22:09:37.311Z,996.23
2018-08-22T22:12:09.581Z,999.90
2018-08-22T22:14:37.607Z,810.27
2018-08-22T22:17:06.115Z,765.03
2018-08-22T22:19:35.349Z,728.27
2018-08-22T22:22:03.835Z,708.93
2018-08-22T22:24:44.041Z,656.53
2018-08-22T22:27:12.081Z,668.20
2018-08-22T22:29:40.261Z,644.47
2018-08-22T22:32:08.502Z,642.77
2018-08-22T22:34:37.330Z,682.87
2018-08-22T22:37:05.601Z,653.93
2018-08-22T22:39:43.773Z,639.97
2018-08-22T22:42:17.251Z,663.63
2018-08-22T22:44:48.561Z,651.40
2018-08-22T22:47:22.063Z,622.33
2018-08-22T22:49:50.708Z,648.10
2018-08-22T22:52:26.375Z,621.10
2018-08-22T22:54:55.589Z,640.00
2018-08-22T22:57:23.823Z,606.37
2018-08-22T22:59:52.217Z,640.10
2018-08-22T23:02:23.088Z,631.77
2018-08-22T23:04:52.093Z,618.17
2018-08-22T23:07:23.878Z,996.17
2018-08-22T23:09:52.930Z,793.67
2018-08-22T23:12:26.409Z,897.53
2018-08-22T23:14:55.340Z,598.93
2018-08-22T23:17:23.370Z,454.93
2018-08-22T23:20:03.940Z,431.20
2018-08-22T23:22:31.991Z,417.50
2018-08-22T23:25:00.124Z,386.20
2018-08-22T23:27:28.138Z,380.40
2018-08-22T23:29:56.171Z,355.37
2018-08-22T23:32:24.170Z,380.30
2018-08-22T23:34:52.178Z,378.27
2018-08-22T23:37:20.173Z,378.50
2018-08-22T23:39:48.182Z,405.37
2018-08-22T23:42:16.177Z,346.93
2018-08-22T23:44:45.007Z,377.80
2018-08-22T23:47:13.008Z,451.53
2018-08-22T23:49:44.786Z,522.77
2018-08-22T23:52:12.830Z,676.77
2018-08-22T23:54:45.218Z,643.77
2018-08-22T23:57:19.211Z,653.63
2018-08-22T23:59:47.262Z,758.93
